createdAt,value
2022-12-15T00:00:24.629Z,-3.70
2022-12-15T00:03:10.450Z,-3.70
2022-12-15T00:05:56.340Z,-3.70
2022-12-15T00:08:41.714Z,-3.70
2022-12-15T00:11:27.148Z,-3.70
2022-12-15T00:14:14.001Z,-3.60
2022-12-15T00:16:59.483Z,-3.60
2022-12-15T00:19:45.011Z,-3.60
2022-12-15T00:22:30.713Z,-3.60
2022-12-15T00:25:16.211Z,-3.70
2022-12-15T00:28:01.815Z,-3.70
2022-12-15T00:30:49.762Z,-3.80
2022-12-15T00:33:36.032Z,-3.70
2022-12-15T00:36:23.212Z,-3.70
2022-12-15T00:38:51.380Z,-3.80
2022-12-15T00:41:19.810Z,-3.80
2022-12-15T00:43:48.333Z,-3.80
2022-12-15T00:46:35.160Z,-3.80
2022-12-15T00:49:03.876Z,-3.80
2022-12-15T00:51:49.371Z,-3.90
2022-12-15T00:54:34.923Z,-3.90
2022-12-15T00:57:20.411Z,-3.80
2022-12-15T01:00:06.099Z,-3.80
2022-12-15T01:02:53.393Z,-3.80
2022-12-15T01:05:39.193Z,-3.80
2022-12-15T01:08:24.691Z,-3.90
2022-12-15T01:11:10.267Z,-3.90
2022-12-15T01:13:55.926Z,-4.00
2022-12-15T01:16:41.729Z,-4.00
2022-12-15T01:19:29.503Z,-4.00
2022-12-15T01:21:57.626Z,-3.90
2022-12-15T01:24:25.820Z,-3.90
2022-12-15T01:26:53.925Z,-3.90
2022-12-15T01:29:22.032Z,-4.00
2022-12-15T01:31:50.410Z,-4.00
2022-12-15T01:34:22.648Z,-3.90
2022-12-15T01:36:50.735Z,-4.00
2022-12-15T01:39:18.825Z,-4.10
2022-12-15T01:41:45.935Z,-4.10
2022-12-15T01:44:19.671Z,-4.10
2022-12-15T01:46:50.057Z,-4.10
2022-12-15T01:49:24.418Z,-4.10
2022-12-15T01:51:58.223Z,-4.10
2022-12-15T01:54:30.379Z,-4.10
2022-12-15T01:57:03.454Z,-4.10
2022-12-15T01:59:35.263Z,-4.20
2022-12-15T02:02:03.903Z,-4.20
2022-12-15T02:04:34.766Z,-4.10
2022-12-15T02:07:02.959Z,-4.10
2022-12-15T02:09:31.919Z,-4.10
2022-12-15T02:12:05.907Z,-4.20
2022-12-15T02:14:46.772Z,-4.30
2022-12-15T02:17:29.438Z,-4.30
2022-12-15T02:20:34.100Z,-4.10
2022-12-15T02:23:27.212Z,-4.20
2022-12-15T02:26:24.143Z,-4.30
2022-12-15T02:29:03.699Z,-4.30
2022-12-15T02:31:51.117Z,-4.40
2022-12-15T02:34:26.966Z,-4.30
2022-12-15T02:36:59.422Z,-4.30
2022-12-15T02:39:27.772Z,-4.30
2022-12-15T02:41:56.062Z,-4.30
2022-12-15T02:44:28.039Z,-4.30
2022-12-15T02:47:18.677Z,-4.30
2022-12-15T02:50:00.629Z,-4.30
2022-12-15T02:52:44.056Z,-4.30
2022-12-15T02:55:16.822Z,-4.40
2022-12-15T02:57:53.442Z,-4.30
2022-12-15T03:00:22.784Z,-4.20
2022-12-15T03:02:54.790Z,-4.00
2022-12-15T03:05:25.375Z,-4.10
2022-12-15T03:07:55.115Z,-4.10
2022-12-15T03:10:25.948Z,-4.10
2022-12-15T03:12:55.539Z,-4.10
2022-12-15T03:15:23.715Z,-4.20
2022-12-15T03:17:53.276Z,-4.20
2022-12-15T03:20:21.458Z,-4.30
2022-12-15T03:22:49.608Z,-4.30
2022-12-15T03:25:17.958Z,-4.30
2022-12-15T03:27:47.547Z,-4.30
2022-12-15T03:30:16.200Z,-4.20
2022-12-15T03:32:44.359Z,-4.30
2022-12-15T03:35:14.214Z,-4.30
2022-12-15T03:37:42.947Z,-4.30
2022-12-15T03:40:13.930Z,-4.30
2022-12-15T03:42:50.506Z,-4.40
2022-12-15T03:45:20.060Z,-4.30
2022-12-15T03:47:49.155Z,-4.40
2022-12-15T03:50:21.279Z,-4.30
2022-12-15T03:52:52.591Z,-4.40
2022-12-15T03:55:21.350Z,-4.40
2022-12-15T03:57:50.434Z,-4.30
2022-12-15T04:00:19.774Z,-4.30
2022-12-15T04:02:50.309Z,-4.40
2022-12-15T04:05:22.756Z,-4.40
2022-12-15T04:07:50.948Z,-4.30
2022-12-15T04:10:19.329Z,-4.30
2022-12-15T04:12:47.515Z,-4.30
2022-12-15T04:15:15.966Z,-4.40
2022-12-15T04:17:44.342Z,-4.30
2022-12-15T04:20:13.073Z,-4.40
2022-12-15T04:22:43.995Z,-4.50
2022-12-15T04:25:32.638Z,-4.40
2022-12-15T04:28:18.417Z,-4.40
2022-12-15T04:31:07.616Z,-4.40
2022-12-15T04:33:54.247Z,-4.50
2022-12-15T04:36:41.159Z,-4.50
2022-12-15T04:39:28.407Z,-4.50
2022-12-15T04:42:16.001Z,-4.40
2022-12-15T04:45:02.181Z,-4.30
2022-12-15T04:47:47.873Z,-4.40
2022-12-15T04:50:33.356Z,-4.40
2022-12-15T04:53:27.144Z,-4.30
2022-12-15T04:56:18.456Z,-4.40
2022-12-15T04:59:05.155Z,-4.40
2022-12-15T05:01:51.053Z,-4.50
2022-12-15T05:04:37.009Z,-4.50
2022-12-15T05:07:22.917Z,-4.50
2022-12-15T05:10:14.307Z,-4.50
2022-12-15T05:13:02.597Z,-4.50
2022-12-15T05:15:48.599Z,-4.50
2022-12-15T05:18:34.128Z,-4.50
2022-12-15T05:21:19.944Z,-4.40
2022-12-15T05:24:06.633Z,-4.50
2022-12-15T05:26:53.147Z,-4.50
2022-12-15T05:29:40.585Z,-4.40
2022-12-15T05:32:09.454Z,-4.40
2022-12-15T05:34:38.538Z,-4.50
2022-12-15T05:37:07.276Z,-4.50
2022-12-15T05:39:35.408Z,-4.70
2022-12-15T05:42:03.712Z,-4.60
2022-12-15T05:44:33.258Z,-4.60
2022-12-15T05:47:01.364Z,-4.70
2022-12-15T05:49:29.522Z,-4.70
2022-12-15T05:51:58.184Z,-4.80
2022-12-15T05:54:26.503Z,-4.70
2022-12-15T05:56:54.725Z,-4.70
2022-12-15T05:59:22.908Z,-4.70
2022-12-15T06:01:52.395Z,-4.60
2022-12-15T06:04:20.705Z,-4.60
2022-12-15T06:06:48.886Z,-4.60
2022-12-15T06:09:17.088Z,-4.50
2022-12-15T06:11:45.576Z,-4.50
2022-12-15T06:14:13.824Z,-4.40
2022-12-15T06:16:51.124Z,-4.40
2022-12-15T06:19:21.267Z,-4.50
2022-12-15T06:21:49.601Z,-4.50
2022-12-15T06:24:18.085Z,-4.50
2022-12-15T06:26:46.321Z,-4.50
2022-12-15T06:29:18.462Z,-4.50
2022-12-15T06:31:46.775Z,-4.60
2022-12-15T06:34:17.264Z,-4.60
2022-12-15T06:36:47.073Z,-4.60
2022-12-15T06:39:16.760Z,-4.70
2022-12-15T06:41:45.368Z,-4.70
2022-12-15T06:44:16.827Z,-4.80
2022-12-15T06:46:46.128Z,-4.60
2022-12-15T06:49:15.024Z,-4.70
2022-12-15T06:51:44.985Z,-4.70
2022-12-15T06:54:15.678Z,-4.60
2022-12-15T06:56:43.980Z,-4.70
2022-12-15T06:59:13.405Z,-4.70
2022-12-15T07:01:42.931Z,-4.60
2022-12-15T07:04:11.943Z,-4.70
2022-12-15T07:06:41.244Z,-4.70
2022-12-15T07:09:14.026Z,-4.70
2022-12-15T07:11:44.009Z,-4.70
2022-12-15T07:14:12.292Z,-4.70
2022-12-15T07:16:41.681Z,-4.70
2022-12-15T07:19:12.694Z,-4.70
2022-12-15T07:21:41.111Z,-4.70
2022-12-15T07:24:11.632Z,-4.70
2022-12-15T07:26:40.350Z,-4.70
2022-12-15T07:29:11.856Z,-4.80
2022-12-15T07:31:40.201Z,-4.70
2022-12-15T07:34:08.375Z,-4.70
2022-12-15T07:36:36.644Z,-4.60
2022-12-15T07:39:06.357Z,-4.60
2022-12-15T07:41:35.509Z,-4.60
2022-12-15T07:44:04.005Z,-4.50
2022-12-15T07:46:33.670Z,-4.60
2022-12-15T07:49:01.965Z,-4.60
2022-12-15T07:51:30.026Z,-4.60
2022-12-15T07:53:58.135Z,-4.50
2022-12-15T07:56:26.464Z,-4.50
2022-12-15T07:58:54.733Z,-4.50
2022-12-15T08:01:22.969Z,-4.50
2022-12-15T08:03:52.536Z,-4.50
2022-12-15T08:06:20.828Z,-4.60
2022-12-15T08:08:50.480Z,-4.50
2022-12-15T08:11:20.630Z,-4.30
2022-12-15T08:14:09.119Z,-4.20
2022-12-15T08:16:38.115Z,-4.20
2022-12-15T08:19:08.932Z,-4.20
2022-12-15T08:21:37.168Z,-4.10
2022-12-15T08:24:05.684Z,-4.00
2022-12-15T08:26:33.777Z,-3.90
2022-12-15T08:29:40.295Z,-4.00
2022-12-15T08:31:54.863Z,-3.80
2022-12-15T08:34:24.490Z,-3.70
2022-12-15T08:36:52.643Z,-3.70
2022-12-15T08:39:21.451Z,-3.60
2022-12-15T08:41:49.568Z,-3.70
2022-12-15T08:44:17.764Z,-3.70
2022-12-15T08:46:46.047Z,-3.60
2022-12-15T08:49:18.041Z,-3.40
2022-12-15T08:51:51.867Z,-3.40
2022-12-15T08:54:20.803Z,-3.30
2022-12-15T08:56:49.064Z,-3.30
2022-12-15T08:59:17.628Z,-3.20
2022-12-15T09:01:45.933Z,-3.10
2022-12-15T09:04:14.132Z,-3.10
2022-12-15T09:06:42.492Z,-3.10
2022-12-15T09:09:13.833Z,-3.10
2022-12-15T09:11:42.008Z,-2.90
2022-12-15T09:14:10.162Z,-2.90
2022-12-15T09:16:38.582Z,-2.80
2022-12-15T09:19:08.331Z,-2.70
2022-12-15T09:21:36.606Z,-2.50
2022-12-15T09:24:05.543Z,-2.40
2022-12-15T09:26:35.642Z,-2.40
2022-12-15T09:29:03.995Z,-2.30
2022-12-15T09:34:02.585Z,-2.20
2022-12-15T09:36:32.833Z,-2.10
2022-12-15T09:39:02.979Z,-2.10
2022-12-15T09:41:33.173Z,-2.00
2022-12-15T09:44:05.292Z,-1.90
2022-12-15T09:46:55.003Z,-1.80
2022-12-15T09:49:39.927Z,-1.80
2022-12-15T09:52:13.303Z,-1.50
2022-12-15T09:54:42.638Z,-1.50
2022-12-15T09:57:20.711Z,-1.40
2022-12-15T10:00:21.767Z,-1.40
2022-12-15T10:03:18.527Z,-1.30
2022-12-15T10:06:15.097Z,-1.20
2022-12-15T10:08:47.036Z,-1.10
2022-12-15T10:11:25.028Z,-1.00
2022-12-15T10:13:58.990Z,-0.90
2022-12-15T10:16:35.285Z,-0.80
2022-12-15T10:19:14.999Z,-0.80
2022-12-15T10:21:43.601Z,-0.70
2022-12-15T10:24:44.334Z,-0.60
2022-12-15T10:27:23.812Z,-0.50
2022-12-15T10:30:01.197Z,-0.50
2022-12-15T10:32:43.010Z,-0.40
2022-12-15T10:35:17.128Z,-0.30
2022-12-15T10:37:45.401Z,-0.20
2022-12-15T10:40:19.252Z,-0.10
2022-12-15T10:42:50.082Z,0.00
2022-12-15T10:45:38.858Z,0.10
2022-12-15T10:48:20.478Z,0.30
2022-12-15T10:50:50.174Z,0.50
2022-12-15T10:53:40.876Z,0.50
2022-12-15T10:56:09.550Z,0.40
2022-12-15T10:58:50.181Z,0.40
2022-12-15T11:01:20.922Z,0.30
2022-12-15T11:03:52.983Z,0.30
2022-12-15T11:06:23.601Z,0.30
2022-12-15T11:08:54.154Z,0.50
2022-12-15T11:11:50.303Z,0.70
2022-12-15T11:14:23.506Z,0.90
2022-12-15T11:16:54.326Z,1.00
2022-12-15T11:19:32.501Z,1.10
2022-12-15T11:22:05.379Z,1.30
2022-12-15T11:24:40.020Z,1.20
2022-12-15T11:27:20.512Z,1.20
2022-12-15T11:30:00.092Z,1.30
2022-12-15T11:32:30.494Z,1.50
2022-12-15T11:35:00.904Z,1.50
2022-12-15T11:37:41.287Z,1.40
2022-12-15T11:40:35.799Z,1.30
2022-12-15T11:43:44.242Z,1.30
2022-12-15T11:46:23.951Z,1.30
2022-12-15T11:49:11.059Z,1.20
2022-12-15T11:51:45.590Z,1.30
2022-12-15T11:54:22.729Z,1.40
2022-12-15T11:56:57.408Z,1.60
2022-12-15T11:59:59.572Z,1.80
2022-12-15T12:02:51.113Z,1.90
2022-12-15T12:05:32.637Z,2.50
2022-12-15T12:08:12.603Z,2.80
2022-12-15T12:10:49.903Z,3.00
2022-12-15T12:13:29.192Z,2.70
2022-12-15T12:16:05.644Z,2.40
2022-12-15T12:18:37.858Z,2.40
2022-12-15T12:21:10.314Z,2.40
2022-12-15T12:23:45.937Z,2.30
2022-12-15T12:26:20.679Z,2.30
2022-12-15T12:28:54.422Z,2.20
2022-12-15T12:31:32.467Z,2.20
2022-12-15T12:34:07.070Z,2.20
2022-12-15T12:36:35.461Z,2.40
2022-12-15T12:39:05.851Z,2.40
2022-12-15T12:41:40.457Z,2.50
2022-12-15T12:44:14.928Z,2.50
2022-12-15T12:46:47.033Z,2.50
2022-12-15T12:52:22.402Z,2.70
2022-12-15T12:55:01.319Z,2.50
2022-12-15T12:57:40.424Z,2.50
2022-12-15T13:00:26.481Z,2.80
2022-12-15T13:03:20.167Z,2.90
2022-12-15T13:05:51.701Z,3.00
2022-12-15T13:08:49.208Z,2.90
2022-12-15T13:11:58.071Z,2.80
2022-12-15T13:14:36.218Z,2.70
2022-12-15T13:17:27.715Z,2.70
2022-12-15T13:20:30.334Z,2.80
2022-12-15T13:23:31.381Z,2.80
2022-12-15T13:26:19.326Z,2.80
2022-12-15T13:28:52.072Z,2.60
2022-12-15T13:31:33.426Z,2.50
2022-12-15T13:34:25.538Z,2.50
2022-12-15T13:36:58.832Z,2.50
2022-12-15T13:39:35.369Z,2.40
2022-12-15T13:42:48.293Z,2.40
2022-12-15T13:45:51.191Z,2.50
2022-12-15T13:48:38.162Z,2.60
2022-12-15T13:51:19.278Z,2.70
2022-12-15T13:53:51.594Z,2.70
2022-12-15T13:56:40.323Z,2.80
2022-12-15T13:59:17.621Z,2.80
2022-12-15T14:01:51.264Z,2.80
2022-12-15T14:04:21.818Z,2.80
2022-12-15T14:06:53.344Z,2.80
2022-12-15T14:09:25.204Z,2.80
2022-12-15T14:11:54.410Z,2.80
2022-12-15T14:14:26.295Z,2.70
2022-12-15T14:17:01.875Z,2.80
2022-12-15T14:19:41.060Z,2.80
2022-12-15T14:25:15.587Z,2.70
2022-12-15T14:27:43.744Z,2.60
2022-12-15T14:30:19.196Z,2.60
2022-12-15T14:32:49.757Z,2.50
2022-12-15T14:35:29.696Z,2.50
2022-12-15T14:38:01.026Z,2.40
2022-12-15T14:40:30.105Z,2.40
2022-12-15T14:42:59.090Z,2.30
2022-12-15T14:45:29.911Z,2.20
2022-12-15T14:50:51.378Z,2.00
2022-12-15T14:53:21.461Z,2.00
2022-12-15T14:55:50.068Z,2.00
2022-12-15T14:58:41.724Z,1.90
2022-12-15T15:01:24.304Z,1.90
2022-12-15T15:03:05.150Z,2.70
2022-12-15T15:03:05.903Z,2.70
2022-12-15T15:04:00.705Z,1.80
2022-12-15T15:06:37.200Z,1.70
2022-12-15T15:09:17.990Z,1.60
2022-12-15T15:11:46.823Z,1.60
2022-12-15T15:14:19.427Z,1.70
2022-12-15T15:17:01.095Z,1.60
2022-12-15T15:19:31.383Z,1.50
2022-12-15T15:22:02.920Z,1.50
2022-12-15T15:24:37.510Z,1.50
2022-12-15T15:27:39.893Z,1.50
2022-12-15T15:30:17.399Z,1.40
2022-12-15T15:32:53.867Z,1.40
2022-12-15T15:35:23.135Z,1.40
2022-12-15T15:37:54.380Z,1.40
2022-12-15T15:40:22.730Z,1.40
2022-12-15T15:42:51.968Z,1.30
2022-12-15T15:45:20.200Z,1.30
2022-12-15T15:47:56.082Z,1.20
2022-12-15T15:50:30.115Z,1.10
2022-12-15T15:52:59.683Z,1.10
2022-12-15T15:55:36.198Z,1.10
2022-12-15T15:58:12.233Z,1.10
2022-12-15T16:00:40.920Z,1.00
2022-12-15T16:03:09.804Z,1.00
2022-12-15T16:05:38.609Z,0.90
2022-12-15T16:08:08.720Z,0.90
2022-12-15T16:10:38.108Z,0.90
2022-12-15T16:13:06.411Z,0.80
2022-12-15T16:15:34.847Z,0.80
2022-12-15T16:18:02.974Z,0.70
2022-12-15T16:20:31.427Z,0.70
2022-12-15T16:23:02.857Z,0.60
2022-12-15T16:25:43.891Z,0.50
2022-12-15T16:28:18.405Z,0.50
2022-12-15T16:30:46.680Z,0.40
2022-12-15T16:33:15.877Z,0.30
2022-12-15T16:35:45.624Z,0.30
2022-12-15T16:38:17.970Z,0.20
2022-12-15T16:40:47.546Z,0.20
2022-12-15T16:43:17.396Z,0.20
2022-12-15T16:45:47.287Z,0.20
2022-12-15T16:48:16.251Z,0.20
2022-12-15T16:50:46.347Z,0.10
2022-12-15T16:53:17.728Z,0.00
2022-12-15T16:55:47.759Z,0.00
2022-12-15T16:58:17.490Z,0.00
2022-12-15T17:00:46.238Z,0.00
2022-12-15T17:03:15.283Z,0.10
2022-12-15T17:05:45.731Z,0.10
2022-12-15T17:08:19.226Z,0.00
2022-12-15T17:10:50.496Z,-0.10
2022-12-15T17:13:36.502Z,-0.20
2022-12-15T17:16:08.886Z,-0.20
2022-12-15T17:18:37.221Z,-0.30
2022-12-15T17:21:08.302Z,-0.30
2022-12-15T17:23:36.892Z,-0.30
2022-12-15T17:26:29.043Z,-0.40
2022-12-15T17:28:58.202Z,-0.30
2022-12-15T17:31:33.254Z,-0.10
2022-12-15T17:34:03.770Z,-0.10
2022-12-15T17:36:32.254Z,-0.10
2022-12-15T17:39:02.316Z,-0.10
2022-12-15T17:44:38.937Z,-0.10
2022-12-15T17:47:09.517Z,-0.10
2022-12-15T17:49:39.130Z,-0.10
2022-12-15T17:52:17.336Z,0.00
2022-12-15T17:54:45.788Z,0.00
2022-12-15T17:57:15.315Z,0.00
2022-12-15T17:59:43.685Z,-0.10
2022-12-15T18:02:14.127Z,-0.10
2022-12-15T18:04:42.999Z,-0.10
2022-12-15T18:07:17.037Z,-0.10
2022-12-15T18:09:45.470Z,-0.20
2022-12-15T18:12:23.278Z,-0.20
2022-12-15T18:14:52.306Z,-0.20
2022-12-15T18:17:20.751Z,-0.30
2022-12-15T18:19:49.185Z,-0.30
2022-12-15T18:22:22.607Z,-0.30
2022-12-15T18:24:52.049Z,-0.30
2022-12-15T18:27:24.783Z,-0.30
2022-12-15T18:29:53.178Z,-0.30
2022-12-15T18:32:23.710Z,-0.30
2022-12-15T18:34:52.371Z,-0.30
2022-12-15T18:37:22.971Z,-0.30
2022-12-15T18:39:51.638Z,-0.30
2022-12-15T18:42:23.037Z,-0.30
2022-12-15T18:44:53.721Z,-0.30
2022-12-15T18:47:25.037Z,-0.30
2022-12-15T18:49:53.263Z,-0.30
2022-12-15T18:52:23.843Z,-0.30
2022-12-15T18:54:53.956Z,-0.30
2022-12-15T18:57:30.186Z,-0.20
2022-12-15T18:59:59.877Z,-0.20
2022-12-15T19:02:28.922Z,-0.20
2022-12-15T19:04:57.477Z,-0.20
2022-12-15T19:09:54.533Z,-0.10
2022-12-15T19:12:23.230Z,0.00
2022-12-15T19:14:55.171Z,0.00
2022-12-15T19:17:42.512Z,0.10
2022-12-15T19:20:35.223Z,0.10
2022-12-15T19:23:03.504Z,0.10
2022-12-15T19:25:32.446Z,0.10
2022-12-15T19:28:02.275Z,0.10
2022-12-15T19:30:41.430Z,0.10
2022-12-15T19:33:10.703Z,0.20
2022-12-15T19:35:39.776Z,0.20
2022-12-15T19:38:08.708Z,0.30
2022-12-15T19:40:38.521Z,0.30
2022-12-15T19:43:07.237Z,0.30
2022-12-15T19:45:36.856Z,0.20
2022-12-15T19:48:05.428Z,0.20
2022-12-15T19:50:37.028Z,0.10
2022-12-15T19:53:08.298Z,0.10
2022-12-15T19:55:37.237Z,0.10
2022-12-15T19:58:27.025Z,0.00
2022-12-15T20:00:59.426Z,0.00
2022-12-15T20:03:28.940Z,0.00
2022-12-15T20:05:59.181Z,0.00
2022-12-15T20:08:31.798Z,-0.10
2022-12-15T20:11:00.533Z,-0.10
2022-12-15T20:13:29.350Z,-0.10
2022-12-15T20:15:59.169Z,-0.10
2022-12-15T20:18:27.541Z,-0.10
2022-12-15T20:20:55.873Z,-0.10
2022-12-15T20:23:27.314Z,-0.10
2022-12-15T20:25:55.941Z,-0.10
2022-12-15T20:28:27.384Z,-0.10
2022-12-15T20:30:56.138Z,-0.10
2022-12-15T20:33:26.341Z,-0.10
2022-12-15T20:35:55.310Z,-0.10
2022-12-15T20:38:31.504Z,-0.20
2022-12-15T20:41:00.778Z,-0.10
2022-12-15T20:43:31.971Z,-0.10
2022-12-15T20:46:04.871Z,-0.10
2022-12-15T20:48:36.606Z,-0.10
2022-12-15T20:51:09.286Z,0.00
2022-12-15T20:53:39.094Z,0.00
2022-12-15T20:56:08.175Z,0.00
2022-12-15T20:58:39.647Z,0.00
2022-12-15T21:01:18.343Z,-0.10
2022-12-15T21:03:49.211Z,0.00
2022-12-15T21:06:20.644Z,0.00
2022-12-15T21:08:49.418Z,0.00
2022-12-15T21:11:19.972Z,0.00
2022-12-15T21:13:50.047Z,0.00
2022-12-15T21:16:20.604Z,-0.10
2022-12-15T21:19:18.504Z,-0.20
2022-12-15T21:21:41.452Z,-0.20
2022-12-15T21:24:16.776Z,-0.30
2022-12-15T21:26:45.023Z,-0.30
2022-12-15T21:29:15.277Z,-0.30
2022-12-15T21:31:44.159Z,-0.40
2022-12-15T21:34:14.270Z,-0.40
2022-12-15T21:36:46.020Z,-0.40
2022-12-15T21:39:24.461Z,-0.40
2022-12-15T21:41:53.091Z,-0.40
2022-12-15T21:44:23.317Z,-0.40
2022-12-15T21:46:51.660Z,-0.50
2022-12-15T21:49:20.629Z,-0.50
2022-12-15T21:51:53.263Z,-0.50
2022-12-15T21:54:30.701Z,-0.50
2022-12-15T21:56:59.944Z,-0.50
2022-12-15T21:59:30.659Z,-0.50
2022-12-15T22:02:01.033Z,-0.50
2022-12-15T22:04:32.865Z,-0.50
2022-12-15T22:07:01.231Z,-0.50
2022-12-15T22:09:29.655Z,-0.50
2022-12-15T22:11:58.166Z,-0.50
2022-12-15T22:14:28.084Z,-0.50
2022-12-15T22:16:57.991Z,-0.50
2022-12-15T22:19:26.286Z,-0.50
2022-12-15T22:21:55.712Z,-0.60
2022-12-15T22:24:24.005Z,-0.60
2022-12-15T22:26:52.324Z,-0.70
2022-12-15T22:29:23.155Z,-0.70
2022-12-15T22:31:52.046Z,-0.70
2022-12-15T22:34:22.189Z,-0.70
2022-12-15T22:36:50.637Z,-0.60
2022-12-15T22:39:21.464Z,-0.60
2022-12-15T22:41:51.560Z,-0.60
2022-12-15T22:44:23.120Z,-0.60
2022-12-15T22:46:52.922Z,-0.60
2022-12-15T22:49:25.932Z,-0.60
2022-12-15T22:51:54.923Z,-0.60
2022-12-15T22:54:25.944Z,-0.60
2022-12-15T22:56:58.469Z,-0.60
2022-12-15T22:59:31.110Z,-0.60
2022-12-15T23:02:02.255Z,-0.60
2022-12-15T23:04:33.056Z,-0.60
2022-12-15T23:07:03.559Z,-0.60
2022-12-15T23:09:33.350Z,-0.60
2022-12-15T23:12:00.711Z,-0.50
2022-12-15T23:14:43.117Z,-0.60
2022-12-15T23:17:11.780Z,-0.50
2022-12-15T23:19:44.602Z,-0.50
2022-12-15T23:22:12.740Z,-0.50
2022-12-15T23:24:42.343Z,-0.50
2022-12-15T23:27:12.044Z,-0.60
2022-12-15T23:29:40.394Z,-0.60
2022-12-15T23:32:08.488Z,-0.70
2022-12-15T23:34:36.758Z,-0.70
2022-12-15T23:37:05.142Z,-0.70
2022-12-15T23:39:33.319Z,-0.80
2022-12-15T23:42:03.026Z,-0.90
2022-12-15T23:44:31.197Z,-0.90
2022-12-15T23:46:59.544Z,-1.00
2022-12-15T23:49:27.759Z,-1.00
2022-12-15T23:51:55.877Z,-1.00
2022-12-15T23:54:24.157Z,-0.90
2022-12-15T23:56:52.322Z,-0.80
2022-12-15T23:59:25.382Z,-0.80
